METAR Data
IDs: Format: Raw Decoded Include TAF

Data at: 1350 UTC 26 Feb 2021

KPAE 261303Z AUTO 29009G17KT 10SM SCT021 BKN048 OVC110 04/01 A2985 RMK AO2 T00390006